createdAt,value
2022-08-26T00:02:11.712Z,99618.31
2022-08-26T00:04:39.582Z,99618.31
2022-08-26T00:07:07.019Z,99607.63
2022-08-26T00:09:38.885Z,99612.13
2022-08-26T00:12:07.367Z,99619.19
2022-08-26T00:14:36.423Z,99612.09
2022-08-26T00:17:04.023Z,99612.16
2022-08-26T00:19:32.485Z,99607.72
2022-08-26T00:21:59.788Z,99598.84
2022-08-26T00:24:27.070Z,99603.28
2022-08-26T00:26:54.476Z,99595.31
2022-08-26T00:29:21.812Z,99604.19
2022-08-26T00:31:50.221Z,99596.19
2022-08-26T00:34:19.604Z,99598.00
2022-08-26T00:36:49.191Z,99602.47
2022-08-26T00:39:20.410Z,99606.06
2022-08-26T00:41:48.513Z,99607.00
2022-08-26T00:44:16.500Z,99599.00
2022-08-26T00:46:50.364Z,99601.66
2022-08-26T00:49:44.701Z,99606.13
2022-08-26T00:52:20.209Z,99599.06
2022-08-26T00:55:04.888Z,99602.59
2022-08-26T00:57:33.702Z,99603.50
2022-08-26T01:00:11.253Z,99594.59
2022-08-26T01:02:39.019Z,99605.31
2022-08-26T01:05:17.094Z,99608.88
2022-08-26T01:07:45.026Z,99604.44
2022-08-26T01:10:19.781Z,99605.31
2022-08-26T01:12:59.297Z,99596.44
2022-08-26T01:15:37.124Z,99606.19
2022-08-26T01:18:06.405Z,99603.53
2022-08-26T01:21:27.175Z,99601.81
2022-08-26T01:23:57.493Z,99606.28
2022-08-26T01:26:41.324Z,99608.09
2022-08-26T01:29:16.838Z,99605.44
2022-08-26T01:31:49.870Z,99603.66
2022-08-26T01:34:35.147Z,99607.25
2022-08-26T01:37:16.103Z,99605.44
2022-08-26T01:39:49.306Z,99606.34
2022-08-26T01:42:19.275Z,99601.94
2022-08-26T01:44:54.438Z,99597.47
2022-08-26T01:47:30.511Z,99608.13
2022-08-26T01:50:03.473Z,99599.28
2022-08-26T01:52:35.408Z,99601.06
2022-08-26T01:55:03.009Z,99593.03
2022-08-26T01:57:30.783Z,99602.84
2022-08-26T02:00:02.143Z,99601.03
2022-08-26T02:02:49.365Z,99605.50
2022-08-26T02:05:22.083Z,99604.66
2022-08-26T02:07:50.729Z,99599.38
2022-08-26T02:10:18.261Z,99598.53
2022-08-26T02:12:48.136Z,99598.56
2022-08-26T02:15:15.579Z,99591.50
2022-08-26T02:17:46.514Z,99593.25
2022-08-26T02:20:20.283Z,99592.38
2022-08-26T02:22:48.285Z,99593.28
2022-08-26T02:25:27.284Z,99592.41
2022-08-26T02:27:56.685Z,99584.38
2022-08-26T02:30:31.605Z,99578.19
2022-08-26T02:33:03.526Z,99575.50
2022-08-26T02:35:33.818Z,99582.66
2022-08-26T02:38:03.495Z,99568.44
2022-08-26T02:40:42.137Z,99567.56
2022-08-26T02:43:10.072Z,99566.69
2022-08-26T02:45:37.425Z,99566.72
2022-08-26T02:48:21.645Z,99559.69
2022-08-26T02:50:49.552Z,99557.03
2022-08-26T02:53:19.213Z,99559.72
2022-08-26T02:55:52.708Z,99557.97
2022-08-26T02:58:20.774Z,99549.97
2022-08-26T03:00:53.423Z,99558.84
2022-08-26T03:03:22.483Z,99549.09
2022-08-26T03:05:53.336Z,99556.19
2022-08-26T03:08:22.218Z,99546.44
2022-08-26T03:10:49.741Z,99543.78
2022-08-26T03:13:17.100Z,99538.47
2022-08-26T03:15:44.629Z,99546.47
2022-08-26T03:18:16.006Z,99542.03
2022-08-26T03:20:44.013Z,99543.84
2022-08-26T03:23:12.454Z,99540.31
2022-08-26T03:25:40.117Z,99535.84
2022-08-26T03:28:07.650Z,99533.19
2022-08-26T03:30:44.842Z,99534.94
2022-08-26T03:33:14.160Z,99529.59
2022-08-26T03:35:45.058Z,99534.94
2022-08-26T03:38:12.830Z,99534.00
2022-08-26T03:40:42.721Z,99537.56
2022-08-26T03:43:14.165Z,99535.78
2022-08-26T03:45:42.584Z,99537.53
2022-08-26T03:48:11.457Z,99534.91
2022-08-26T03:50:39.610Z,99538.50
2022-08-26T03:53:07.384Z,99535.84
2022-08-26T03:55:34.952Z,99535.84
2022-08-26T03:58:02.638Z,99538.50
2022-08-26T04:00:30.322Z,99544.66
2022-08-26T04:02:57.873Z,99541.16
2022-08-26T04:05:25.625Z,99542.00
2022-08-26T04:07:52.991Z,99548.25
2022-08-26T04:10:29.224Z,99551.84
2022-08-26T04:12:59.444Z,99540.31
2022-08-26T04:15:27.802Z,99542.13
2022-08-26T04:17:55.794Z,99541.22
2022-08-26T04:20:23.469Z,99532.34
2022-08-26T04:22:51.331Z,99536.81
2022-08-26T04:25:18.914Z,99535.91
2022-08-26T04:27:48.495Z,99542.13
2022-08-26T04:30:16.725Z,99535.03
2022-08-26T04:32:44.375Z,99541.25
2022-08-26T04:35:12.124Z,99539.47
2022-08-26T04:37:43.098Z,99534.13
2022-08-26T04:40:10.931Z,99527.91
2022-08-26T04:42:38.487Z,99526.16
2022-08-26T04:45:10.159Z,99527.03
2022-08-26T04:47:38.315Z,99532.34
2022-08-26T04:50:08.315Z,99539.47
2022-08-26T04:52:38.510Z,99535.91
2022-08-26T04:55:08.635Z,99531.47
2022-08-26T04:57:36.541Z,99534.09
2022-08-26T05:00:13.314Z,99542.94
2022-08-26T05:02:41.173Z,99547.38
2022-08-26T05:05:10.571Z,99544.72
2022-08-26T05:07:38.120Z,99544.72
2022-08-26T05:10:08.924Z,99547.38
2022-08-26T05:12:36.210Z,99548.28
2022-08-26T05:15:06.777Z,99546.50
2022-08-26T05:17:34.142Z,99550.94
2022-08-26T05:20:01.596Z,99552.69
2022-08-26T05:22:29.013Z,99557.16
2022-08-26T05:24:56.237Z,99567.78
2022-08-26T05:27:23.686Z,99572.19
2022-08-26T05:29:54.552Z,99566.84
2022-08-26T05:32:22.136Z,99566.84
2022-08-26T05:34:56.989Z,99573.91
2022-08-26T05:37:25.948Z,99570.38
2022-08-26T05:39:53.258Z,99569.47
2022-08-26T05:42:20.708Z,99570.38
2022-08-26T05:44:56.052Z,99575.72
2022-08-26T05:47:24.675Z,99572.09
2022-08-26T05:49:52.033Z,99578.31
2022-08-26T05:52:20.170Z,99570.28
2022-08-26T05:54:47.842Z,99570.28
2022-08-26T05:57:16.085Z,99576.47
2022-08-26T05:59:46.020Z,99577.28
2022-08-26T06:02:13.463Z,99579.03
2022-08-26T06:04:41.087Z,99580.75
2022-08-26T06:07:10.022Z,99580.75
2022-08-26T06:09:39.717Z,99578.09
2022-08-26T06:12:07.474Z,99581.59
2022-08-26T06:14:36.086Z,99584.25
2022-08-26T06:17:03.773Z,99582.53
2022-08-26T06:19:32.899Z,99589.66
2022-08-26T06:22:23.436Z,99589.59
2022-08-26T06:25:10.190Z,99589.56
2022-08-26T06:27:37.770Z,99593.13
2022-08-26T06:30:06.005Z,99596.59
2022-08-26T06:32:33.720Z,99598.19
2022-08-26T06:35:01.329Z,99601.63
2022-08-26T06:37:28.838Z,99604.28
2022-08-26T06:39:56.656Z,99609.63
2022-08-26T06:42:25.159Z,99608.66
2022-08-26T06:44:52.493Z,99615.72
2022-08-26T06:47:19.769Z,99619.22
2022-08-26T06:49:47.162Z,99618.25
2022-08-26T06:52:15.196Z,99619.97
2022-08-26T06:54:47.311Z,99607.38
2022-08-26T06:57:14.667Z,99611.78
2022-08-26T06:59:44.174Z,99614.47
2022-08-26T07:02:13.598Z,99615.34
2022-08-26T07:04:41.775Z,99614.31
2022-08-26T07:07:14.632Z,99614.28
2022-08-26T07:09:42.082Z,99616.06
2022-08-26T07:12:09.623Z,99615.97
2022-08-26T07:14:38.350Z,99622.94
2022-08-26T07:17:10.067Z,99624.56
2022-08-26T07:19:39.547Z,99626.25
2022-08-26T07:22:07.280Z,99627.03
2022-08-26T07:24:40.233Z,99619.69
2022-08-26T07:27:15.089Z,99621.13
2022-08-26T07:29:43.631Z,99621.97
2022-08-26T07:32:14.853Z,99612.84
2022-08-26T07:34:43.783Z,99621.69
2022-08-26T07:37:11.482Z,99613.66
2022-08-26T07:39:40.285Z,99617.00
2022-08-26T07:42:09.803Z,99606.81
2022-08-26T07:44:38.428Z,99603.84
2022-08-26T07:47:10.482Z,99600.00
2022-08-26T07:49:56.347Z,99610.56
2022-08-26T07:52:27.597Z,99600.75
2022-08-26T07:54:58.575Z,99600.50
2022-08-26T07:57:27.765Z,99605.59
2022-08-26T07:59:57.249Z,99600.84
2022-08-26T08:02:26.527Z,99590.78
2022-08-26T08:04:55.047Z,99596.91
2022-08-26T08:07:25.767Z,99595.00
2022-08-26T08:10:11.649Z,99588.66
2022-08-26T08:12:40.996Z,99586.94
2022-08-26T08:15:13.743Z,99589.47
2022-08-26T08:17:43.719Z,99591.25
2022-08-26T08:20:14.457Z,99588.28
2022-08-26T08:22:42.922Z,99583.06
2022-08-26T08:25:12.699Z,99583.38
2022-08-26T08:27:43.071Z,99583.75
2022-08-26T08:30:13.759Z,99577.44
2022-08-26T08:32:43.554Z,99583.38
2022-08-26T08:35:22.397Z,99574.00
2022-08-26T08:37:54.258Z,99567.69
2022-08-26T08:40:26.075Z,99568.63
2022-08-26T08:43:14.987Z,99568.16
2022-08-26T08:45:53.424Z,99566.13
2022-08-26T08:48:33.793Z,99564.25
2022-08-26T08:51:48.026Z,99567.03
2022-08-26T08:54:15.934Z,99567.72
2022-08-26T08:57:13.063Z,99568.09
2022-08-26T09:00:03.665Z,99564.75
2022-08-26T09:02:51.571Z,99567.34
2022-08-26T09:05:37.057Z,99574.25
2022-08-26T09:08:20.230Z,99573.59
2022-08-26T09:11:01.550Z,99571.81
2022-08-26T09:13:31.545Z,99575.78
2022-08-26T09:16:39.742Z,99562.22
2022-08-26T09:19:38.754Z,99555.56
2022-08-26T09:22:09.297Z,99556.72
2022-08-26T09:24:42.089Z,99555.91
2022-08-26T09:27:45.523Z,99559.91
2022-08-26T09:30:33.031Z,99563.25
2022-08-26T09:33:06.584Z,99558.66
2022-08-26T09:35:48.666Z,99547.88
2022-08-26T09:38:33.253Z,99556.34
2022-08-26T09:41:07.041Z,99551.22
2022-08-26T09:43:36.110Z,99551.50
2022-08-26T09:46:29.474Z,99552.06
2022-08-26T09:48:56.985Z,99541.56
2022-08-26T09:51:32.016Z,99545.47
2022-08-26T09:54:03.862Z,99542.31
2022-08-26T09:56:39.269Z,99538.19
2022-08-26T09:59:12.071Z,99536.75
2022-08-26T10:01:43.598Z,99532.34
2022-08-26T10:04:26.758Z,99533.03
2022-08-26T10:07:08.229Z,99532.19
2022-08-26T10:09:45.530Z,99527.91
2022-08-26T10:12:21.947Z,99525.38
2022-08-26T10:15:13.525Z,99518.09
2022-08-26T10:17:57.235Z,99517.13
2022-08-26T10:20:31.336Z,99511.31
2022-08-26T10:23:15.793Z,99513.88
2022-08-26T10:26:05.789Z,99508.50
2022-08-26T10:29:07.496Z,99502.81
2022-08-26T10:31:55.395Z,99506.31
2022-08-26T10:34:32.374Z,99505.03
2022-08-26T10:37:16.807Z,99503.91
2022-08-26T10:39:57.296Z,99501.72
2022-08-26T10:42:38.219Z,99494.47
2022-08-26T10:45:19.729Z,99499.88
2022-08-26T10:48:11.080Z,99496.25
2022-08-26T10:50:47.633Z,99487.56
2022-08-26T10:54:21.998Z,99491.69
2022-08-26T10:57:43.029Z,99477.22
2022-08-26T11:00:43.913Z,99476.31
2022-08-26T11:03:33.023Z,99477.66
2022-08-26T11:06:18.849Z,99469.72
2022-08-26T11:09:09.227Z,99466.47
2022-08-26T11:11:50.812Z,99472.53
2022-08-26T11:14:28.892Z,99462.56
2022-08-26T11:16:59.767Z,99472.22
2022-08-26T11:19:59.658Z,99460.59
2022-08-26T11:22:47.455Z,99454.31
2022-08-26T11:25:23.553Z,99449.75
2022-08-26T11:28:00.579Z,99444.47
2022-08-26T11:30:44.071Z,99444.94
2022-08-26T11:33:51.083Z,99440.41
2022-08-26T11:36:56.188Z,99435.16
2022-08-26T11:39:56.976Z,99435.50
2022-08-26T11:43:08.322Z,99429.66
2022-08-26T11:45:47.441Z,99422.34
2022-08-26T11:48:22.952Z,99432.69
2022-08-26T11:51:24.874Z,99423.44
2022-08-26T11:54:12.035Z,99418.66
2022-08-26T11:56:42.350Z,99413.56
2022-08-26T11:59:17.981Z,99428.09
2022-08-26T12:01:51.441Z,99410.41
2022-08-26T12:04:43.615Z,99409.03
2022-08-26T12:07:15.732Z,99411.16
2022-08-26T12:10:03.818Z,99404.69
2022-08-26T12:12:38.459Z,99403.44
2022-08-26T12:15:14.515Z,99403.78
2022-08-26T12:17:45.323Z,99408.63
2022-08-26T12:20:48.779Z,99394.78
2022-08-26T12:23:40.608Z,99397.09
2022-08-26T12:26:31.391Z,99390.56
2022-08-26T12:29:27.427Z,99396.63
2022-08-26T12:32:18.398Z,99389.91
2022-08-26T12:34:49.039Z,99384.94
2022-08-26T12:37:21.956Z,99383.94
2022-08-26T12:39:49.893Z,99386.47
2022-08-26T12:42:24.176Z,99380.16
2022-08-26T12:45:06.570Z,99376.53
2022-08-26T12:47:44.106Z,99367.38
2022-08-26T12:50:25.079Z,99360.44
2022-08-26T12:53:07.026Z,99362.63
2022-08-26T12:59:23.086Z,99358.88
2022-08-26T13:01:55.071Z,99363.41
2022-08-26T13:04:43.017Z,99360.03
2022-08-26T13:07:26.428Z,99348.13
2022-08-26T13:10:01.673Z,99348.56
2022-08-26T13:12:37.437Z,99345.28
2022-08-26T13:15:08.398Z,99344.41
2022-08-26T13:17:36.214Z,99341.56
2022-08-26T13:20:05.046Z,99339.66
2022-08-26T13:22:32.767Z,99340.47
2022-08-26T13:25:00.590Z,99333.06
2022-08-26T13:27:28.615Z,99337.56
2022-08-26T13:29:57.691Z,99329.66
2022-08-26T13:32:29.493Z,99330.50
2022-08-26T13:35:07.643Z,99325.75
2022-08-26T13:37:35.657Z,99319.47
2022-08-26T13:40:07.247Z,99317.38
2022-08-26T13:42:35.685Z,99317.00
2022-08-26T13:45:04.816Z,99316.97
2022-08-26T13:47:33.570Z,99318.66
2022-08-26T13:50:05.197Z,99307.16
2022-08-26T13:52:32.616Z,99311.81
2022-08-26T13:55:00.860Z,99308.97
2022-08-26T13:57:31.768Z,99309.72
2022-08-26T13:59:59.630Z,99291.47
2022-08-26T14:02:28.300Z,99288.88
2022-08-26T14:04:55.939Z,99287.25
2022-08-26T14:07:24.315Z,99285.41
2022-08-26T14:09:53.164Z,99280.19
2022-08-26T14:12:20.935Z,99284.06
2022-08-26T14:14:48.503Z,99279.81
2022-08-26T14:17:24.498Z,99277.28
2022-08-26T14:20:02.435Z,99283.00
2022-08-26T14:22:34.228Z,99277.34
2022-08-26T14:25:01.982Z,99275.81
2022-08-26T14:27:33.023Z,99269.56
2022-08-26T14:30:03.473Z,99269.34
2022-08-26T14:32:32.640Z,99262.72
2022-08-26T14:35:02.384Z,99270.09
2022-08-26T14:37:32.033Z,99273.59
2022-08-26T14:39:59.700Z,99260.97
2022-08-26T14:42:31.410Z,99262.25
2022-08-26T14:45:05.596Z,99257.91
2022-08-26T14:47:33.254Z,99258.56
2022-08-26T14:50:00.720Z,99252.56
2022-08-26T14:52:28.091Z,99255.31
2022-08-26T14:54:55.543Z,99259.09
2022-08-26T14:57:24.303Z,99261.50
2022-08-26T14:59:51.817Z,99257.22
2022-08-26T15:02:27.761Z,99256.31
2022-08-26T15:05:16.837Z,99258.69
2022-08-26T15:07:47.338Z,99253.91
2022-08-26T15:10:17.931Z,99251.38
2022-08-26T15:12:46.590Z,99251.09
2022-08-26T15:15:17.655Z,99255.00
2022-08-26T15:17:45.445Z,99251.31
2022-08-26T15:20:13.742Z,99255.56
2022-08-26T15:22:43.198Z,99247.97
2022-08-26T15:25:12.291Z,99257.97
2022-08-26T15:27:40.369Z,99262.91
2022-08-26T15:30:11.715Z,99270.22
2022-08-26T15:32:39.343Z,99257.81
2022-08-26T15:35:09.310Z,99265.06
2022-08-26T15:37:36.959Z,99260.72
2022-08-26T15:40:05.611Z,99260.06
2022-08-26T15:42:33.221Z,99258.22
2022-08-26T15:45:03.578Z,99253.09
2022-08-26T15:47:31.190Z,99253.94
2022-08-26T15:50:02.961Z,99253.25
2022-08-26T15:52:30.364Z,99258.06
2022-08-26T15:54:58.324Z,99253.84
2022-08-26T15:57:25.824Z,99254.59
2022-08-26T15:59:54.309Z,99253.50
2022-08-26T16:02:21.852Z,99260.31
2022-08-26T16:04:49.393Z,99265.41
2022-08-26T16:07:17.542Z,99259.88
2022-08-26T16:09:45.420Z,99260.81
2022-08-26T16:12:19.626Z,99264.19
2022-08-26T16:14:54.723Z,99263.88
2022-08-26T16:17:23.185Z,99266.78
2022-08-26T16:19:50.991Z,99266.69
2022-08-26T16:22:21.349Z,99272.31
2022-08-26T16:24:52.543Z,99264.53
2022-08-26T16:27:23.101Z,99261.28
2022-08-26T16:29:54.419Z,99254.38
2022-08-26T16:32:21.972Z,99262.13
2022-08-26T16:34:56.295Z,99259.19
2022-08-26T16:37:25.478Z,99266.91
2022-08-26T16:40:00.899Z,99269.22
2022-08-26T16:42:31.150Z,99273.25
2022-08-26T16:45:06.561Z,99274.03
2022-08-26T16:47:37.589Z,99274.44
2022-08-26T16:50:09.352Z,99273.28
2022-08-26T16:52:40.368Z,99283.44
2022-08-26T16:55:14.376Z,99280.00
2022-08-26T16:57:45.131Z,99277.81
2022-08-26T17:00:34.575Z,99275.06
2022-08-26T17:03:04.771Z,99275.22
2022-08-26T17:05:32.188Z,99275.44
2022-08-26T17:08:00.653Z,99274.06
2022-08-26T17:10:33.095Z,99272.38
2022-08-26T17:13:00.788Z,99269.78
2022-08-26T17:15:28.392Z,99266.81
2022-08-26T17:17:59.935Z,99273.66
2022-08-26T17:20:30.282Z,99273.25
2022-08-26T17:22:58.924Z,99270.41
2022-08-26T17:25:31.910Z,99269.28
2022-08-26T17:27:59.923Z,99267.75
2022-08-26T17:30:32.726Z,99271.34
2022-08-26T17:33:01.646Z,99268.19
2022-08-26T17:35:38.581Z,99272.09
2022-08-26T17:38:05.914Z,99272.94
2022-08-26T17:40:35.537Z,99284.75
2022-08-26T17:43:11.695Z,99277.78
2022-08-26T17:45:41.229Z,99275.16
2022-08-26T17:48:13.220Z,99272.41
2022-08-26T17:50:49.696Z,99278.84
2022-08-26T17:53:20.838Z,99278.75
2022-08-26T17:55:52.785Z,99282.69
2022-08-26T17:58:23.776Z,99278.16
2022-08-26T18:01:03.068Z,99276.81
2022-08-26T18:03:30.542Z,99268.88
2022-08-26T18:05:57.972Z,99273.31
2022-08-26T18:08:25.563Z,99272.53
2022-08-26T18:10:53.377Z,99272.53
2022-08-26T18:13:21.566Z,99266.38
2022-08-26T18:15:49.455Z,99262.81
2022-08-26T18:18:17.151Z,99263.78
2022-08-26T18:20:46.164Z,99261.31
2022-08-26T18:23:19.512Z,99257.13
2022-08-26T18:25:47.656Z,99260.03
2022-08-26T18:28:15.451Z,99254.88
2022-08-26T18:30:45.184Z,99257.59
2022-08-26T18:33:17.420Z,99256.88
2022-08-26T18:35:48.368Z,99267.69
2022-08-26T18:38:16.406Z,99271.38
2022-08-26T18:40:45.552Z,99262.56
2022-08-26T18:43:13.022Z,99263.59
2022-08-26T18:45:41.155Z,99265.34
2022-08-26T18:48:08.875Z,99259.97
2022-08-26T18:50:45.817Z,99267.22
2022-08-26T18:53:15.612Z,99268.28
2022-08-26T18:55:43.096Z,99272.84
2022-08-26T18:58:11.887Z,99274.25
2022-08-26T19:00:39.499Z,99271.09
2022-08-26T19:03:08.211Z,99281.19
2022-08-26T19:05:46.102Z,99275.06
2022-08-26T19:08:13.544Z,99274.13
2022-08-26T19:10:41.557Z,99283.88
2022-08-26T19:13:10.116Z,99283.00
2022-08-26T19:15:43.037Z,99285.81
2022-08-26T19:18:17.618Z,99289.38
2022-08-26T19:20:47.873Z,99292.13
2022-08-26T19:23:31.069Z,99294.25
2022-08-26T19:26:03.503Z,99288.31
2022-08-26T19:28:31.618Z,99291.97
2022-08-26T19:30:59.853Z,99289.38
2022-08-26T19:33:28.314Z,99289.53
2022-08-26T19:35:56.414Z,99284.16
2022-08-26T19:38:25.136Z,99286.78
2022-08-26T19:40:55.235Z,99282.22
2022-08-26T19:43:23.096Z,99290.16
2022-08-26T19:45:53.697Z,99293.06
2022-08-26T19:48:21.400Z,99289.66
2022-08-26T19:50:51.534Z,99291.50
2022-08-26T19:53:20.026Z,99296.94
2022-08-26T19:55:50.605Z,99296.16
2022-08-26T19:58:18.506Z,99294.50
2022-08-26T20:00:46.166Z,99297.28
2022-08-26T20:03:16.391Z,99296.41
2022-08-26T20:05:43.847Z,99295.38
2022-08-26T20:08:15.193Z,99294.50
2022-08-26T20:10:52.606Z,99299.84
2022-08-26T20:13:21.926Z,99297.25
2022-08-26T20:15:49.346Z,99297.28
2022-08-26T20:18:35.153Z,99294.66
2022-08-26T20:21:21.308Z,99302.78
2022-08-26T20:23:48.755Z,99298.28
2022-08-26T20:26:16.904Z,99293.94
2022-08-26T20:28:44.513Z,99295.75
2022-08-26T20:31:12.484Z,99306.50
2022-08-26T20:33:46.547Z,99302.19
2022-08-26T20:36:15.553Z,99303.94
2022-08-26T20:38:43.280Z,99297.88
2022-08-26T20:41:11.014Z,99300.66
2022-08-26T20:43:38.367Z,99304.16
2022-08-26T20:46:08.364Z,99300.59
2022-08-26T20:48:46.019Z,99298.00
2022-08-26T20:51:13.586Z,99299.94
2022-08-26T20:53:41.363Z,99299.97
2022-08-26T20:56:12.616Z,99299.16
2022-08-26T20:58:40.896Z,99302.75
2022-08-26T21:01:09.017Z,99306.34
2022-08-26T21:03:40.281Z,99302.84
2022-08-26T21:06:08.225Z,99305.53
2022-08-26T21:08:43.271Z,99301.06
2022-08-26T21:11:12.769Z,99304.56
2022-08-26T21:14:01.512Z,99302.75
2022-08-26T21:16:30.413Z,99306.97
2022-08-26T21:19:00.507Z,99307.09
2022-08-26T21:21:28.567Z,99315.38
2022-08-26T21:23:56.570Z,99321.84
2022-08-26T21:26:24.749Z,99321.06
2022-08-26T21:28:55.206Z,99320.25
2022-08-26T21:31:27.710Z,99324.66
2022-08-26T21:33:59.337Z,99321.94
2022-08-26T21:36:27.369Z,99320.91
2022-08-26T21:38:59.810Z,99326.06
2022-08-26T21:41:28.640Z,99320.72
2022-08-26T21:43:59.272Z,99322.78
2022-08-26T21:46:30.051Z,99324.72
2022-08-26T21:49:02.181Z,99327.38
2022-08-26T21:51:35.354Z,99315.72
2022-08-26T21:54:09.942Z,99328.09
2022-08-26T21:56:46.700Z,99328.22
2022-08-26T21:59:17.606Z,99326.66
2022-08-26T22:01:45.776Z,99330.19
2022-08-26T22:04:13.272Z,99328.31
2022-08-26T22:06:51.857Z,99328.25
2022-08-26T22:09:26.656Z,99327.44
2022-08-26T22:11:56.796Z,99326.66
2022-08-26T22:14:30.894Z,99330.25
2022-08-26T22:16:59.890Z,99335.59
2022-08-26T22:19:27.497Z,99337.34
2022-08-26T22:21:56.530Z,99339.16
2022-08-26T22:24:27.199Z,99339.88
2022-08-26T22:26:55.721Z,99337.91
2022-08-26T22:29:25.144Z,99335.31
2022-08-26T22:31:53.335Z,99335.50
2022-08-26T22:34:22.807Z,99345.31
2022-08-26T22:36:54.067Z,99337.25
2022-08-26T22:39:24.946Z,99340.91
2022-08-26T22:41:55.239Z,99335.47
2022-08-26T22:44:23.566Z,99338.16
2022-08-26T22:46:54.329Z,99340.84
2022-08-26T22:49:22.839Z,99335.63
2022-08-26T22:51:52.267Z,99337.59
2022-08-26T22:54:20.080Z,99342.25
2022-08-26T22:56:49.057Z,99346.00
2022-08-26T22:59:16.781Z,99348.00
2022-08-26T23:01:44.860Z,99348.09
2022-08-26T23:04:12.583Z,99342.03
2022-08-26T23:06:47.444Z,99344.78
2022-08-26T23:09:18.598Z,99343.94
2022-08-26T23:11:48.317Z,99346.63
2022-08-26T23:14:19.151Z,99343.06
2022-08-26T23:16:47.494Z,99343.94
2022-08-26T23:19:20.077Z,99343.09
2022-08-26T23:21:49.984Z,99342.19
2022-08-26T23:24:18.407Z,99339.50
2022-08-26T23:26:46.880Z,99336.78
2022-08-26T23:29:15.987Z,99334.13
2022-08-26T23:31:43.977Z,99334.19
2022-08-26T23:34:30.930Z,99340.47
2022-08-26T23:37:00.118Z,99325.34
2022-08-26T23:39:31.111Z,99333.34
2022-08-26T23:42:01.494Z,99328.94
2022-08-26T23:44:30.614Z,99329.88
2022-08-26T23:46:59.382Z,99321.88
2022-08-26T23:49:27.129Z,99317.56
2022-08-26T23:52:13.163Z,99318.63
2022-08-26T23:54:40.983Z,99318.88
2022-08-26T23:57:11.968Z,99316.41
2022-08-26T23:59:39.886Z,99312.03
